»·PEaware :: N3861Q KBUR-KPSP

N3861Q :: KBUR-KPSP

FLIGHT INFORMATION

Flight Status: Arrived
Operator: Privately registered:
United States
More flights under this callsign
Pilot: Rod M. (882)
Aircraft: PIPER PA-31/31P NAVAJO CHIEFTAIN
(PA31)
More flights by this aircraft type
Origin: KBUR Bob Hope-Burbank
United States
Destination: KPSP Palm Springs Intl
United States
More flights between these airports :: More routes between these airports
Route: ELMOO8 ELMOO V186 NIKKL TRM
File this flight plan on PilotEdge
Remarks:
Altitude:
(Current/Filed)
13,000ft
Speed:
(Current/Filed)
180kts
Departed: 27-Sep-17 08:01 PM
Arrived: 27-Sep-17 08:56 PM
Distance/Time
Traveled:
95nm/0:55
Distance/Time
To Go:
Arrived

Flight Plot

Page will automatically refresh every two minutes.

Flight plan parsing failed; only flown route is shown


Map Options




Map Legend


Flown Route
Filed Route
Departure Airport
Arrival Airport
Navaid (VOR, NDB)
Fix

Horizontal Profiles

Position Reports

Time Latitude Longitude Heading Altitude Ground
Speed
27-Sep-17 19:55 34.196152 -118.363969 357 781ft 0kts
27-Sep-17 19:56 34.196152 -118.363969 357 781ft 0kts
27-Sep-17 19:57 34.196152 -118.363969 357 781ft 0kts
27-Sep-17 19:58 34.196152 -118.363969 357 781ft 0kts
27-Sep-17 19:59 34.196152 -118.363969 357 781ft 0kts
27-Sep-17 20:00 34.196152 -118.363969 357 781ft 0kts
27-Sep-17 20:01 34.196870 -118.364571 270 781ft 9kts
27-Sep-17 20:02 34.196914 -118.368721 273 781ft 8kts
27-Sep-17 20:03 34.197083 -118.369055 332 781ft 0kts
27-Sep-17 20:04 34.197852 -118.369025 57 781ft 12kts
27-Sep-17 20:05 34.195340 -118.337682 114 1300ft 138kts
27-Sep-17 20:06 34.171852 -118.302179 134 2646ft 135kts
27-Sep-17 20:07 34.155436 -118.261868 112 3974ft 137kts
27-Sep-17 20:08 34.143530 -118.217350 111 5227ft 141kts
27-Sep-17 20:09 34.129696 -118.173181 111 6489ft 142kts
27-Sep-17 20:10 34.114753 -118.127902 110 7632ft 147kts
27-Sep-17 20:11 34.100283 -118.081779 110 8783ft 149kts
27-Sep-17 20:12 34.084114 -118.035285 111 9914ft 152kts
27-Sep-17 20:13 34.067849 -117.985440 109 10846ft 168kts
27-Sep-17 20:14 34.048506 -117.935305 106 11990ft 164kts
27-Sep-17 20:15 34.030731 -117.882923 111 12863ft 173kts
27-Sep-17 20:16 34.009991 -117.827258 108 13013ft 191kts
27-Sep-17 20:17 33.992823 -117.769935 106 12976ft 190kts
27-Sep-17 20:18 33.976127 -117.709616 106 12973ft 189kts
27-Sep-17 20:19 33.957184 -117.650470 107 12969ft 189kts
27-Sep-17 20:20 33.937841 -117.591451 107 12967ft 189kts
27-Sep-17 20:21 33.917680 -117.532851 125 12952ft 193kts
27-Sep-17 20:22 33.874027 -117.493985 140 12967ft 196kts
27-Sep-17 20:23 33.829413 -117.456476 140 12975ft 196kts
27-Sep-17 20:24 33.784741 -117.419051 140 12985ft 196kts
27-Sep-17 20:25 33.740147 -117.381759 140 12996ft 195kts
27-Sep-17 20:26 33.726745 -117.323785 93 13003ft 185kts
27-Sep-17 20:27 33.721432 -117.262254 92 13002ft 185kts
27-Sep-17 20:28 33.716392 -117.200721 92 13002ft 185kts
27-Sep-17 20:29 33.711362 -117.139103 92 13002ft 185kts
27-Sep-17 20:30 33.706287 -117.077199 91 12993ft 186kts
27-Sep-17 20:31 33.701448 -117.015049 91 12976ft 187kts
27-Sep-17 20:32 33.696282 -116.952580 91 12959ft 188kts
27-Sep-17 20:33 33.691043 -116.889744 91 12942ft 190kts
27-Sep-17 20:34 33.685742 -116.826561 91 12937ft 190kts
27-Sep-17 20:35 33.680399 -116.763335 91 12937ft 190kts
27-Sep-17 20:36 33.675029 -116.700171 91 12937ft 190kts
27-Sep-17 20:37 33.669589 -116.636583 92 12498ft 191kts
27-Sep-17 20:38 33.664190 -116.573536 92 11298ft 190kts
27-Sep-17 20:39 33.656387 -116.511051 111 9976ft 192kts
27-Sep-17 20:40 33.633885 -116.453956 112 8990ft 184kts
27-Sep-17 20:41 33.612365 -116.399351 112 8932ft 177kts
27-Sep-17 20:42 33.591921 -116.347401 112 8926ft 168kts
27-Sep-17 20:43 33.572052 -116.297026 112 8928ft 166kts
27-Sep-17 20:44 33.552373 -116.247160 112 8928ft 165kts
27-Sep-17 20:45 33.532829 -116.197537 112 8819ft 164kts
27-Sep-17 20:46 33.532443 -116.146550 74 7903ft 159kts
27-Sep-17 20:47 33.544659 -116.095901 74 7002ft 157kts
27-Sep-17 20:48 33.578570 -116.086294 322 6080ft 169kts
27-Sep-17 20:49 33.609222 -116.128807 310 5162ft 166kts
27-Sep-17 20:50 33.630326 -116.167267 284 4394ft 161kts
27-Sep-17 20:51 33.643426 -116.226255 284 4037ft 161kts
27-Sep-17 20:52 33.655761 -116.279000 285 3974ft 158kts
27-Sep-17 20:53 33.666294 -116.323962 283 4002ft 132kts
27-Sep-17 20:54 33.674348 -116.359824 289 4026ft 134kts
27-Sep-17 20:55 33.706452 -116.393429 320 3379ft 134kts
27-Sep-17 20:56 33.730447 -116.415982 321 2629ft 128kts
27-Sep-17 20:57 33.758077 -116.442050 320 1962ft 123kts
27-Sep-17 20:58 33.785238 -116.466718 323 1359ft 123kts
27-Sep-17 20:59 33.811671 -116.491715 320 700ft 116kts
27-Sep-17 21:00 33.832350 -116.510126 323 481ft 22kts
27-Sep-17 21:01 33.832856 -116.511913 188 481ft 0kts
27-Sep-17 21:02 33.832787 -116.511923 184 481ft 4kts
27-Sep-17 21:03 33.829495 -116.509633 143 481ft 10kts
27-Sep-17 21:04 33.826888 -116.507225 144 481ft 10kts
27-Sep-17 21:05 33.825308 -116.507824 289 481ft 6kts
27-Sep-17 21:06 33.825929 -116.508813 275 481ft 0kts
27-Sep-17 21:07 33.825929 -116.508814 275 481ft 0kts
27-Sep-17 21:08 33.825929 -116.508814 275 481ft 0kts

Navigation Log

Ident Type
Flight plan parsing failed, navigation log unavailable